sensor_id;sensor_type;location;lat;lon;timestamp;P1;durP1;ratioP1;P2;durP2;ratioP2
59263;SDS011;45030;42.720;23.344;2023-05-23T00:02:08;58.45;;;23.77;;
59263;SDS011;45030;42.720;23.344;2023-05-23T00:04:33;95.40;;;40.95;;
59263;SDS011;45030;42.720;23.344;2023-05-23T00:06:59;75.00;;;31.63;;
59263;SDS011;45030;42.720;23.344;2023-05-23T00:09:25;76.30;;;31.55;;
59263;SDS011;45030;42.720;23.344;2023-05-23T00:11:50;57.10;;;25.17;;
59263;SDS011;45030;42.720;23.344;2023-05-23T00:14:15;60.53;;;26.70;;
59263;SDS011;45030;42.720;23.344;2023-05-23T00:16:41;60.65;;;26.48;;
59263;SDS011;45030;42.720;23.344;2023-05-23T00:19:08;52.42;;;24.67;;
59263;SDS011;45030;42.720;23.344;2023-05-23T00:21:34;59.38;;;25.40;;
59263;SDS011;45030;42.720;23.344;2023-05-23T00:23:59;35.05;;;17.58;;
59263;SDS011;45030;42.720;23.344;2023-05-23T00:26:26;48.10;;;19.45;;
59263;SDS011;45030;42.720;23.344;2023-05-23T00:28:53;54.42;;;22.50;;
59263;SDS011;45030;42.720;23.344;2023-05-23T00:31:20;51.28;;;20.10;;
59263;SDS011;45030;42.720;23.344;2023-05-23T00:33:45;42.08;;;19.42;;
59263;SDS011;45030;42.720;23.344;2023-05-23T00:36:10;39.63;;;17.67;;
59263;SDS011;45030;42.720;23.344;2023-05-23T00:38:37;38.80;;;17.85;;
59263;SDS011;45030;42.720;23.344;2023-05-23T00:41:03;49.88;;;20.33;;
59263;SDS011;45030;42.720;23.344;2023-05-23T00:43:28;34.17;;;15.07;;
59263;SDS011;45030;42.720;23.344;2023-05-23T00:45:54;55.55;;;22.00;;
59263;SDS011;45030;42.720;23.344;2023-05-23T00:48:19;34.08;;;16.60;;
59263;SDS011;45030;42.720;23.344;2023-05-23T00:50:45;25.27;;;12.65;;
59263;SDS011;45030;42.720;23.344;2023-05-23T00:53:10;29.27;;;13.38;;
59263;SDS011;45030;42.720;23.344;2023-05-23T00:55:36;29.00;;;13.88;;
59263;SDS011;45030;42.720;23.344;2023-05-23T00:58:03;34.30;;;16.35;;
59263;SDS011;45030;42.720;23.344;2023-05-23T01:00:28;15.23;;;8.52;;
59263;SDS011;45030;42.720;23.344;2023-05-23T01:02:54;14.00;;;6.55;;
59263;SDS011;45030;42.720;23.344;2023-05-23T01:05:20;14.30;;;7.28;;
59263;SDS011;45030;42.720;23.344;2023-05-23T01:07:47;16.00;;;7.57;;
59263;SDS011;45030;42.720;23.344;2023-05-23T01:10:12;12.65;;;7.07;;
59263;SDS011;45030;42.720;23.344;2023-05-23T01:15:11;12.15;;;7.22;;
59263;SDS011;45030;42.720;23.344;2023-05-23T01:20:27;13.43;;;7.45;;
59263;SDS011;45030;42.720;23.344;2023-05-23T01:25:45;12.70;;;7.60;;
59263;SDS011;45030;42.720;23.344;2023-05-23T01:28:13;13.38;;;7.93;;
59263;SDS011;45030;42.720;23.344;2023-05-23T01:30:39;14.60;;;7.60;;
59263;SDS011;45030;42.720;23.344;2023-05-23T01:33:05;14.95;;;7.85;;
59263;SDS011;45030;42.720;23.344;2023-05-23T01:35:30;16.90;;;8.50;;
59263;SDS011;45030;42.720;23.344;2023-05-23T01:37:56;19.67;;;10.07;;
59263;SDS011;45030;42.720;23.344;2023-05-23T01:40:22;15.00;;;9.07;;
59263;SDS011;45030;42.720;23.344;2023-05-23T01:42:48;16.98;;;9.57;;
59263;SDS011;45030;42.720;23.344;2023-05-23T01:45:13;19.58;;;10.63;;
59263;SDS011;45030;42.720;23.344;2023-05-23T01:47:39;14.10;;;7.32;;
59263;SDS011;45030;42.720;23.344;2023-05-23T01:50:05;17.23;;;8.02;;
59263;SDS011;45030;42.720;23.344;2023-05-23T01:52:31;14.70;;;7.28;;
59263;SDS011;45030;42.720;23.344;2023-05-23T01:54:57;14.60;;;7.10;;
59263;SDS011;45030;42.720;23.344;2023-05-23T01:57:23;11.10;;;6.75;;
59263;SDS011;45030;42.720;23.344;2023-05-23T01:59:50;13.40;;;7.00;;
59263;SDS011;45030;42.720;23.344;2023-05-23T02:02:15;14.27;;;6.82;;
59263;SDS011;45030;42.720;23.344;2023-05-23T02:04:40;13.10;;;7.10;;
59263;SDS011;45030;42.720;23.344;2023-05-23T02:07:05;13.38;;;6.35;;
59263;SDS011;45030;42.720;23.344;2023-05-23T02:09:31;10.35;;;5.85;;
59263;SDS011;45030;42.720;23.344;2023-05-23T02:11:56;12.05;;;5.28;;
59263;SDS011;45030;42.720;23.344;2023-05-23T02:14:21;14.75;;;5.03;;
59263;SDS011;45030;42.720;23.344;2023-05-23T02:16:47;13.57;;;5.10;;
59263;SDS011;45030;42.720;23.344;2023-05-23T02:19:13;11.27;;;4.88;;
59263;SDS011;45030;42.720;23.344;2023-05-23T02:21:38;12.50;;;5.70;;
59263;SDS011;45030;42.720;23.344;2023-05-23T02:24:03;15.25;;;5.30;;
59263;SDS011;45030;42.720;23.344;2023-05-23T02:26:29;8.45;;;5.65;;
59263;SDS011;45030;42.720;23.344;2023-05-23T02:28:54;10.77;;;5.65;;
59263;SDS011;45030;42.720;23.344;2023-05-23T02:31:19;12.27;;;5.90;;
59263;SDS011;45030;42.720;23.344;2023-05-23T02:33:45;14.30;;;6.32;;
59263;SDS011;45030;42.720;23.344;2023-05-23T02:36:10;12.82;;;6.97;;
59263;SDS011;45030;42.720;23.344;2023-05-23T02:38:35;25.73;;;7.43;;
59263;SDS011;45030;42.720;23.344;2023-05-23T02:41:01;17.05;;;6.78;;
59263;SDS011;45030;42.720;23.344;2023-05-23T02:43:26;11.18;;;6.50;;
59263;SDS011;45030;42.720;23.344;2023-05-23T02:45:51;15.65;;;7.45;;
59263;SDS011;45030;42.720;23.344;2023-05-23T02:48:17;19.17;;;7.32;;
59263;SDS011;45030;42.720;23.344;2023-05-23T02:50:42;29.02;;;8.88;;
59263;SDS011;45030;42.720;23.344;2023-05-23T02:53:07;14.73;;;8.13;;
59263;SDS011;45030;42.720;23.344;2023-05-23T02:55:33;11.27;;;4.78;;
59263;SDS011;45030;42.720;23.344;2023-05-23T02:57:59;13.50;;;5.68;;
59263;SDS011;45030;42.720;23.344;2023-05-23T03:00:24;13.82;;;6.53;;
59263;SDS011;45030;42.720;23.344;2023-05-23T03:02:50;12.90;;;5.82;;
59263;SDS011;45030;42.720;23.344;2023-05-23T03:05:15;17.23;;;6.82;;
59263;SDS011;45030;42.720;23.344;2023-05-23T03:07:40;11.15;;;6.47;;
59263;SDS011;45030;42.720;23.344;2023-05-23T03:10:06;15.02;;;6.00;;
59263;SDS011;45030;42.720;23.344;2023-05-23T03:12:31;13.35;;;6.20;;
59263;SDS011;45030;42.720;23.344;2023-05-23T03:14:57;18.90;;;6.75;;
59263;SDS011;45030;42.720;23.344;2023-05-23T03:17:23;21.98;;;11.38;;
59263;SDS011;45030;42.720;23.344;2023-05-23T03:19:49;19.92;;;8.65;;
59263;SDS011;45030;42.720;23.344;2023-05-23T03:22:14;21.10;;;9.52;;
59263;SDS011;45030;42.720;23.344;2023-05-23T03:24:39;15.68;;;8.38;;
59263;SDS011;45030;42.720;23.344;2023-05-23T03:27:05;21.92;;;10.27;;
59263;SDS011;45030;42.720;23.344;2023-05-23T03:29:30;24.90;;;9.57;;
59263;SDS011;45030;42.720;23.344;2023-05-23T03:31:56;18.52;;;7.85;;
59263;SDS011;45030;42.720;23.344;2023-05-23T03:34:21;16.52;;;8.80;;
59263;SDS011;45030;42.720;23.344;2023-05-23T03:36:47;17.48;;;7.05;;
59263;SDS011;45030;42.720;23.344;2023-05-23T03:39:13;18.98;;;7.93;;
59263;SDS011;45030;42.720;23.344;2023-05-23T03:41:38;18.10;;;7.88;;
59263;SDS011;45030;42.720;23.344;2023-05-23T03:44:03;18.27;;;8.10;;
59263;SDS011;45030;42.720;23.344;2023-05-23T03:46:28;16.88;;;7.63;;
59263;SDS011;45030;42.720;23.344;2023-05-23T03:48:53;15.00;;;6.53;;
59263;SDS011;45030;42.720;23.344;2023-05-23T03:51:19;13.48;;;5.95;;
59263;SDS011;45030;42.720;23.344;2023-05-23T03:53:44;17.40;;;7.50;;
59263;SDS011;45030;42.720;23.344;2023-05-23T03:56:10;15.98;;;6.30;;
59263;SDS011;45030;42.720;23.344;2023-05-23T03:58:35;18.02;;;7.35;;
59263;SDS011;45030;42.720;23.344;2023-05-23T04:01:00;27.83;;;8.45;;
59263;SDS011;45030;42.720;23.344;2023-05-23T04:03:25;11.43;;;5.72;;
59263;SDS011;45030;42.720;23.344;2023-05-23T04:05:51;14.98;;;6.63;;
59263;SDS011;45030;42.720;23.344;2023-05-23T04:08:16;18.73;;;6.75;;
59263;SDS011;45030;42.720;23.344;2023-05-23T04:10:45;14.70;;;5.10;;
59263;SDS011;45030;42.720;23.344;2023-05-23T04:13:11;22.08;;;6.78;;
59263;SDS011;45030;42.720;23.344;2023-05-23T04:15:36;15.93;;;6.90;;
59263;SDS011;45030;42.720;23.344;2023-05-23T04:18:01;18.85;;;8.15;;
59263;SDS011;45030;42.720;23.344;2023-05-23T04:20:28;24.52;;;8.27;;
59263;SDS011;45030;42.720;23.344;2023-05-23T04:22:54;27.02;;;11.00;;
59263;SDS011;45030;42.720;23.344;2023-05-23T04:25:19;28.35;;;10.98;;
59263;SDS011;45030;42.720;23.344;2023-05-23T04:27:45;22.75;;;9.98;;
59263;SDS011;45030;42.720;23.344;2023-05-23T04:30:11;29.85;;;9.15;;
59263;SDS011;45030;42.720;23.344;2023-05-23T04:32:36;21.10;;;9.63;;
59263;SDS011;45030;42.720;23.344;2023-05-23T04:35:02;25.85;;;9.73;;
59263;SDS011;45030;42.720;23.344;2023-05-23T04:37:28;23.92;;;10.23;;
59263;SDS011;45030;42.720;23.344;2023-05-23T04:39:53;27.42;;;10.20;;
59263;SDS011;45030;42.720;23.344;2023-05-23T04:42:18;27.88;;;10.48;;
59263;SDS011;45030;42.720;23.344;2023-05-23T04:44:48;31.48;;;10.15;;
59263;SDS011;45030;42.720;23.344;2023-05-23T04:47:14;27.13;;;11.70;;
59263;SDS011;45030;42.720;23.344;2023-05-23T04:49:39;22.60;;;10.68;;
59263;SDS011;45030;42.720;23.344;2023-05-23T04:52:06;24.35;;;9.23;;
59263;SDS011;45030;42.720;23.344;2023-05-23T04:54:32;27.45;;;11.20;;
59263;SDS011;45030;42.720;23.344;2023-05-23T04:56:57;21.00;;;9.50;;
59263;SDS011;45030;42.720;23.344;2023-05-23T04:59:23;21.92;;;10.23;;
59263;SDS011;45030;42.720;23.344;2023-05-23T05:01:48;23.15;;;10.25;;
59263;SDS011;45030;42.720;23.344;2023-05-23T05:04:13;28.90;;;11.80;;
59263;SDS011;45030;42.720;23.344;2023-05-23T05:06:39;26.55;;;10.32;;
59263;SDS011;45030;42.720;23.344;2023-05-23T05:09:05;32.42;;;13.50;;
59263;SDS011;45030;42.720;23.344;2023-05-23T05:11:30;31.75;;;12.52;;
59263;SDS011;45030;42.720;23.344;2023-05-23T05:13:55;33.97;;;11.70;;
59263;SDS011;45030;42.720;23.344;2023-05-23T05:16:21;33.53;;;12.23;;
59263;SDS011;45030;42.720;23.344;2023-05-23T05:18:46;30.15;;;10.93;;
59263;SDS011;45030;42.720;23.344;2023-05-23T05:21:11;29.13;;;11.90;;
59263;SDS011;45030;42.720;23.344;2023-05-23T05:23:36;25.83;;;11.02;;
59263;SDS011;45030;42.720;23.344;2023-05-23T05:26:02;25.02;;;10.85;;
59263;SDS011;45030;42.720;23.344;2023-05-23T05:28:29;31.90;;;13.20;;
59263;SDS011;45030;42.720;23.344;2023-05-23T05:30:54;29.40;;;11.85;;
59263;SDS011;45030;42.720;23.344;2023-05-23T05:33:19;33.08;;;11.95;;
59263;SDS011;45030;42.720;23.344;2023-05-23T05:35:48;29.75;;;13.30;;
59263;SDS011;45030;42.720;23.344;2023-05-23T05:38:13;32.85;;;13.80;;
59263;SDS011;45030;42.720;23.344;2023-05-23T05:40:38;35.90;;;14.95;;
59263;SDS011;45030;42.720;23.344;2023-05-23T05:43:03;40.33;;;16.05;;
59263;SDS011;45030;42.720;23.344;2023-05-23T05:45:29;33.30;;;14.73;;
59263;SDS011;45030;42.720;23.344;2023-05-23T05:47:54;35.38;;;13.30;;
59263;SDS011;45030;42.720;23.344;2023-05-23T05:50:19;37.80;;;14.70;;
59263;SDS011;45030;42.720;23.344;2023-05-23T05:52:45;35.65;;;13.60;;
59263;SDS011;45030;42.720;23.344;2023-05-23T05:55:10;24.80;;;12.00;;
59263;SDS011;45030;42.720;23.344;2023-05-23T05:57:36;31.67;;;12.77;;
59263;SDS011;45030;42.720;23.344;2023-05-23T06:00:03;30.35;;;12.30;;
59263;SDS011;45030;42.720;23.344;2023-05-23T06:02:35;30.20;;;13.23;;
59263;SDS011;45030;42.720;23.344;2023-05-23T06:05:01;31.48;;;12.98;;
59263;SDS011;45030;42.720;23.344;2023-05-23T06:07:26;25.65;;;12.13;;
59263;SDS011;45030;42.720;23.344;2023-05-23T06:09:51;25.65;;;11.95;;
59263;SDS011;45030;42.720;23.344;2023-05-23T06:12:16;25.45;;;10.55;;
59263;SDS011;45030;42.720;23.344;2023-05-23T06:14:41;24.90;;;10.32;;
59263;SDS011;45030;42.720;23.344;2023-05-23T06:17:07;27.13;;;10.00;;
59263;SDS011;45030;42.720;23.344;2023-05-23T06:19:32;26.45;;;11.35;;
59263;SDS011;45030;42.720;23.344;2023-05-23T06:21:58;26.45;;;11.45;;
59263;SDS011;45030;42.720;23.344;2023-05-23T06:24:24;24.50;;;11.52;;
59263;SDS011;45030;42.720;23.344;2023-05-23T06:26:49;26.55;;;13.05;;
59263;SDS011;45030;42.720;23.344;2023-05-23T06:29:14;34.95;;;13.18;;
59263;SDS011;45030;42.720;23.344;2023-05-23T06:31:40;31.23;;;13.43;;
59263;SDS011;45030;42.720;23.344;2023-05-23T06:34:05;40.50;;;16.77;;
59263;SDS011;45030;42.720;23.344;2023-05-23T06:36:30;41.17;;;16.88;;
59263;SDS011;45030;42.720;23.344;2023-05-23T06:38:55;42.22;;;15.10;;
59263;SDS011;45030;42.720;23.344;2023-05-23T06:41:21;39.72;;;14.45;;
59263;SDS011;45030;42.720;23.344;2023-05-23T06:43:46;34.55;;;14.50;;
59263;SDS011;45030;42.720;23.344;2023-05-23T06:46:12;33.92;;;15.35;;
59263;SDS011;45030;42.720;23.344;2023-05-23T06:48:37;33.22;;;14.60;;
59263;SDS011;45030;42.720;23.344;2023-05-23T06:51:02;32.85;;;13.45;;
59263;SDS011;45030;42.720;23.344;2023-05-23T06:53:27;36.28;;;14.77;;
59263;SDS011;45030;42.720;23.344;2023-05-23T06:55:53;37.85;;;14.40;;
59263;SDS011;45030;42.720;23.344;2023-05-23T06:58:18;35.22;;;15.75;;
59263;SDS011;45030;42.720;23.344;2023-05-23T07:00:43;43.90;;;15.40;;
59263;SDS011;45030;42.720;23.344;2023-05-23T07:03:08;30.13;;;12.55;;
59263;SDS011;45030;42.720;23.344;2023-05-23T07:05:34;39.65;;;15.88;;
59263;SDS011;45030;42.720;23.344;2023-05-23T07:08:00;34.05;;;14.27;;
59263;SDS011;45030;42.720;23.344;2023-05-23T07:10:25;37.38;;;14.98;;
59263;SDS011;45030;42.720;23.344;2023-05-23T07:12:51;36.50;;;14.80;;
59263;SDS011;45030;42.720;23.344;2023-05-23T07:15:16;40.20;;;14.20;;
59263;SDS011;45030;42.720;23.344;2023-05-23T07:17:41;32.35;;;13.30;;
59263;SDS011;45030;42.720;23.344;2023-05-23T07:20:07;31.92;;;12.63;;
59263;SDS011;45030;42.720;23.344;2023-05-23T07:22:32;27.15;;;12.73;;
59263;SDS011;45030;42.720;23.344;2023-05-23T07:24:58;27.90;;;12.18;;
59263;SDS011;45030;42.720;23.344;2023-05-23T07:27:23;29.65;;;12.40;;
59263;SDS011;45030;42.720;23.344;2023-05-23T07:29:48;25.88;;;11.63;;
59263;SDS011;45030;42.720;23.344;2023-05-23T07:32:14;24.55;;;10.98;;
59263;SDS011;45030;42.720;23.344;2023-05-23T07:34:40;25.73;;;11.43;;
59263;SDS011;45030;42.720;23.344;2023-05-23T07:37:05;18.63;;;10.63;;
59263;SDS011;45030;42.720;23.344;2023-05-23T07:39:30;23.45;;;11.15;;
59263;SDS011;45030;42.720;23.344;2023-05-23T07:41:55;20.63;;;10.80;;
59263;SDS011;45030;42.720;23.344;2023-05-23T07:44:21;23.40;;;11.23;;
59263;SDS011;45030;42.720;23.344;2023-05-23T07:46:46;18.75;;;10.00;;
59263;SDS011;45030;42.720;23.344;2023-05-23T07:49:11;19.25;;;9.90;;
59263;SDS011;45030;42.720;23.344;2023-05-23T07:51:36;18.70;;;9.10;;
59263;SDS011;45030;42.720;23.344;2023-05-23T07:54:02;20.98;;;11.30;;
59263;SDS011;45030;42.720;23.344;2023-05-23T07:56:27;21.90;;;10.57;;
59263;SDS011;45030;42.720;23.344;2023-05-23T07:58:52;21.95;;;10.57;;
59263;SDS011;45030;42.720;23.344;2023-05-23T08:01:18;17.58;;;8.80;;
59263;SDS011;45030;42.720;23.344;2023-05-23T08:03:44;13.10;;;8.35;;
59263;SDS011;45030;42.720;23.344;2023-05-23T08:06:09;16.00;;;9.00;;
59263;SDS011;45030;42.720;23.344;2023-05-23T08:08:34;18.50;;;9.20;;
59263;SDS011;45030;42.720;23.344;2023-05-23T08:11:00;16.33;;;8.48;;
59263;SDS011;45030;42.720;23.344;2023-05-23T08:13:25;16.30;;;8.88;;
59263;SDS011;45030;42.720;23.344;2023-05-23T08:15:50;13.05;;;7.68;;
59263;SDS011;45030;42.720;23.344;2023-05-23T08:18:15;15.73;;;8.43;;
59263;SDS011;45030;42.720;23.344;2023-05-23T08:20:42;14.60;;;8.23;;
59263;SDS011;45030;42.720;23.344;2023-05-23T08:23:07;12.07;;;7.65;;
59263;SDS011;45030;42.720;23.344;2023-05-23T08:25:32;14.43;;;7.78;;
59263;SDS011;45030;42.720;23.344;2023-05-23T08:27:58;12.25;;;7.55;;
59263;SDS011;45030;42.720;23.344;2023-05-23T08:30:24;12.57;;;8.50;;
59263;SDS011;45030;42.720;23.344;2023-05-23T08:32:52;16.45;;;9.73;;
59263;SDS011;45030;42.720;23.344;2023-05-23T08:35:19;17.35;;;10.30;;
59263;SDS011;45030;42.720;23.344;2023-05-23T08:37:44;16.67;;;10.07;;
59263;SDS011;45030;42.720;23.344;2023-05-23T08:40:13;13.07;;;7.95;;
59263;SDS011;45030;42.720;23.344;2023-05-23T08:42:38;10.20;;;7.32;;
59263;SDS011;45030;42.720;23.344;2023-05-23T08:45:04;11.82;;;6.82;;
59263;SDS011;45030;42.720;23.344;2023-05-23T08:47:29;13.02;;;10.35;;
59263;SDS011;45030;42.720;23.344;2023-05-23T08:49:58;9.60;;;6.72;;
59263;SDS011;45030;42.720;23.344;2023-05-23T08:52:24;11.00;;;6.65;;
59263;SDS011;45030;42.720;23.344;2023-05-23T08:54:49;7.10;;;5.75;;
59263;SDS011;45030;42.720;23.344;2023-05-23T08:57:15;9.15;;;5.50;;
59263;SDS011;45030;42.720;23.344;2023-05-23T08:59:40;7.00;;;4.63;;
59263;SDS011;45030;42.720;23.344;2023-05-23T09:02:07;9.98;;;5.70;;
59263;SDS011;45030;42.720;23.344;2023-05-23T09:04:34;7.90;;;5.43;;
59263;SDS011;45030;42.720;23.344;2023-05-23T09:07:00;7.68;;;5.07;;
59263;SDS011;45030;42.720;23.344;2023-05-23T09:09:26;8.68;;;5.07;;
59263;SDS011;45030;42.720;23.344;2023-05-23T09:11:51;7.80;;;5.05;;
59263;SDS011;45030;42.720;23.344;2023-05-23T09:14:18;8.98;;;4.80;;
59263;SDS011;45030;42.720;23.344;2023-05-23T09:16:45;10.48;;;5.00;;
59263;SDS011;45030;42.720;23.344;2023-05-23T09:19:11;7.53;;;4.50;;
59263;SDS011;45030;42.720;23.344;2023-05-23T09:21:36;6.18;;;4.40;;
59263;SDS011;45030;42.720;23.344;2023-05-23T09:24:02;6.95;;;4.85;;
59263;SDS011;45030;42.720;23.344;2023-05-23T09:26:27;6.00;;;4.13;;
59263;SDS011;45030;42.720;23.344;2023-05-23T09:28:52;7.73;;;4.33;;
59263;SDS011;45030;42.720;23.344;2023-05-23T09:31:21;6.35;;;3.65;;
59263;SDS011;45030;42.720;23.344;2023-05-23T09:33:50;6.05;;;3.53;;
59263;SDS011;45030;42.720;23.344;2023-05-23T09:36:15;7.10;;;3.15;;
59263;SDS011;45030;42.720;23.344;2023-05-23T09:38:42;4.90;;;3.15;;
59263;SDS011;45030;42.720;23.344;2023-05-23T09:41:07;4.78;;;3.13;;
59263;SDS011;45030;42.720;23.344;2023-05-23T09:43:36;4.05;;;2.70;;
59263;SDS011;45030;42.720;23.344;2023-05-23T09:46:11;5.00;;;2.47;;
59263;SDS011;45030;42.720;23.344;2023-05-23T09:48:36;4.13;;;2.70;;
59263;SDS011;45030;42.720;23.344;2023-05-23T09:51:05;5.35;;;2.80;;
59263;SDS011;45030;42.720;23.344;2023-05-23T09:53:30;3.30;;;2.10;;
59263;SDS011;45030;42.720;23.344;2023-05-23T09:55:57;3.45;;;2.28;;
59263;SDS011;45030;42.720;23.344;2023-05-23T09:58:23;4.03;;;2.28;;
59263;SDS011;45030;42.720;23.344;2023-05-23T10:00:49;4.03;;;2.90;;
59263;SDS011;45030;42.720;23.344;2023-05-23T10:03:16;3.42;;;2.08;;
59263;SDS011;45030;42.720;23.344;2023-05-23T10:05:47;3.17;;;1.70;;
59263;SDS011;45030;42.720;23.344;2023-05-23T10:08:19;3.85;;;2.22;;
59263;SDS011;45030;42.720;23.344;2023-05-23T10:13:17;3.83;;;2.45;;
59263;SDS011;45030;42.720;23.344;2023-05-23T10:15:43;7.00;;;2.67;;
59263;SDS011;45030;42.720;23.344;2023-05-23T10:18:09;3.17;;;2.43;;
59263;SDS011;45030;42.720;23.344;2023-05-23T10:20:37;3.28;;;2.30;;
59263;SDS011;45030;42.720;23.344;2023-05-23T10:23:03;4.07;;;2.00;;
59263;SDS011;45030;42.720;23.344;2023-05-23T10:25:29;2.50;;;2.08;;
59263;SDS011;45030;42.720;23.344;2023-05-23T10:27:55;3.47;;;2.30;;
59263;SDS011;45030;42.720;23.344;2023-05-23T10:30:27;3.00;;;1.83;;
59263;SDS011;45030;42.720;23.344;2023-05-23T10:32:55;3.25;;;2.20;;
59263;SDS011;45030;42.720;23.344;2023-05-23T10:38:22;2.72;;;1.88;;
59263;SDS011;45030;42.720;23.344;2023-05-23T10:40:52;5.25;;;2.30;;
59263;SDS011;45030;42.720;23.344;2023-05-23T10:43:24;3.30;;;1.98;;
59263;SDS011;45030;42.720;23.344;2023-05-23T10:45:52;3.95;;;2.13;;
59263;SDS011;45030;42.720;23.344;2023-05-23T10:48:33;2.80;;;1.85;;
59263;SDS011;45030;42.720;23.344;2023-05-23T10:53:30;4.05;;;2.20;;
59263;SDS011;45030;42.720;23.344;2023-05-23T10:55:56;2.65;;;1.90;;
59263;SDS011;45030;42.720;23.344;2023-05-23T10:58:21;3.35;;;1.92;;
59263;SDS011;45030;42.720;23.344;2023-05-23T11:01:00;2.65;;;1.60;;
59263;SDS011;45030;42.720;23.344;2023-05-23T11:03:29;3.30;;;2.00;;
59263;SDS011;45030;42.720;23.344;2023-05-23T11:05:57;3.83;;;1.73;;
59263;SDS011;45030;42.720;23.344;2023-05-23T11:08:23;5.22;;;2.05;;
59263;SDS011;45030;42.720;23.344;2023-05-23T11:13:23;4.85;;;3.03;;
59263;SDS011;45030;42.720;23.344;2023-05-23T11:15:48;4.60;;;2.13;;
59263;SDS011;45030;42.720;23.344;2023-05-23T11:18:21;3.85;;;1.65;;
59263;SDS011;45030;42.720;23.344;2023-05-23T11:20:46;4.28;;;2.05;;
59263;SDS011;45030;42.720;23.344;2023-05-23T11:23:13;3.45;;;1.58;;
59263;SDS011;45030;42.720;23.344;2023-05-23T11:25:46;4.90;;;1.95;;
59263;SDS011;45030;42.720;23.344;2023-05-23T11:28:12;3.35;;;1.85;;
59263;SDS011;45030;42.720;23.344;2023-05-23T11:30:38;3.97;;;1.98;;
59263;SDS011;45030;42.720;23.344;2023-05-23T11:33:07;3.22;;;2.10;;
59263;SDS011;45030;42.720;23.344;2023-05-23T11:35:34;2.00;;;1.52;;
59263;SDS011;45030;42.720;23.344;2023-05-23T11:38:00;5.25;;;2.33;;
59263;SDS011;45030;42.720;23.344;2023-05-23T11:40:27;4.35;;;2.00;;
59263;SDS011;45030;42.720;23.344;2023-05-23T11:42:53;3.53;;;2.17;;
59263;SDS011;45030;42.720;23.344;2023-05-23T11:45:18;3.83;;;1.70;;
59263;SDS011;45030;42.720;23.344;2023-05-23T11:47:44;3.58;;;1.98;;
59263;SDS011;45030;42.720;23.344;2023-05-23T11:50:09;2.67;;;1.50;;
59263;SDS011;45030;42.720;23.344;2023-05-23T11:52:35;2.45;;;1.73;;
59263;SDS011;45030;42.720;23.344;2023-05-23T11:55:00;3.90;;;1.80;;
59263;SDS011;45030;42.720;23.344;2023-05-23T11:57:25;2.67;;;1.65;;
59263;SDS011;45030;42.720;23.344;2023-05-23T11:59:50;3.58;;;2.03;;
59263;SDS011;45030;42.720;23.344;2023-05-23T12:02:16;2.05;;;1.55;;
59263;SDS011;45030;42.720;23.344;2023-05-23T12:04:41;3.20;;;2.10;;
59263;SDS011;45030;42.720;23.344;2023-05-23T12:07:06;3.80;;;1.77;;
59263;SDS011;45030;42.720;23.344;2023-05-23T12:09:31;4.00;;;1.73;;
59263;SDS011;45030;42.720;23.344;2023-05-23T12:12:05;3.30;;;2.20;;
59263;SDS011;45030;42.720;23.344;2023-05-23T12:14:30;3.25;;;1.67;;
59263;SDS011;45030;42.720;23.344;2023-05-23T12:16:57;3.08;;;1.80;;
59263;SDS011;45030;42.720;23.344;2023-05-23T12:19:23;3.30;;;2.00;;
59263;SDS011;45030;42.720;23.344;2023-05-23T12:21:48;3.95;;;1.83;;
59263;SDS011;45030;42.720;23.344;2023-05-23T12:24:23;3.08;;;1.80;;
59263;SDS011;45030;42.720;23.344;2023-05-23T12:26:48;3.00;;;1.33;;
59263;SDS011;45030;42.720;23.344;2023-05-23T12:29:14;2.65;;;1.70;;
59263;SDS011;45030;42.720;23.344;2023-05-23T12:31:40;5.05;;;1.75;;
59263;SDS011;45030;42.720;23.344;2023-05-23T12:34:05;3.33;;;1.88;;
59263;SDS011;45030;42.720;23.344;2023-05-23T12:36:31;2.60;;;1.53;;
59263;SDS011;45030;42.720;23.344;2023-05-23T12:39:05;2.92;;;1.70;;
59263;SDS011;45030;42.720;23.344;2023-05-23T12:41:31;3.00;;;1.70;;
59263;SDS011;45030;42.720;23.344;2023-05-23T12:43:56;2.33;;;1.52;;
59263;SDS011;45030;42.720;23.344;2023-05-23T12:46:22;3.30;;;1.90;;
59263;SDS011;45030;42.720;23.344;2023-05-23T12:48:47;3.38;;;1.60;;
59263;SDS011;45030;42.720;23.344;2023-05-23T12:51:13;4.05;;;2.20;;
59263;SDS011;45030;42.720;23.344;2023-05-23T12:53:38;2.33;;;1.60;;
59263;SDS011;45030;42.720;23.344;2023-05-23T12:56:04;4.50;;;2.35;;
59263;SDS011;45030;42.720;23.344;2023-05-23T12:58:29;2.65;;;1.80;;
59263;SDS011;45030;42.720;23.344;2023-05-23T13:00:55;4.03;;;1.80;;
59263;SDS011;45030;42.720;23.344;2023-05-23T13:03:20;2.77;;;1.90;;
59263;SDS011;45030;42.720;23.344;2023-05-23T13:05:45;2.38;;;1.60;;
59263;SDS011;45030;42.720;23.344;2023-05-23T13:08:10;3.55;;;1.77;;
59263;SDS011;45030;42.720;23.344;2023-05-23T13:10:36;3.88;;;1.90;;
59263;SDS011;45030;42.720;23.344;2023-05-23T13:13:02;2.45;;;1.52;;
59263;SDS011;45030;42.720;23.344;2023-05-23T13:15:28;2.95;;;1.90;;
59263;SDS011;45030;42.720;23.344;2023-05-23T13:17:53;4.28;;;1.63;;
59263;SDS011;45030;42.720;23.344;2023-05-23T13:20:18;3.05;;;1.70;;
59263;SDS011;45030;42.720;23.344;2023-05-23T13:22:44;4.07;;;1.70;;
59263;SDS011;45030;42.720;23.344;2023-05-23T13:25:09;4.82;;;1.50;;
59263;SDS011;45030;42.720;23.344;2023-05-23T13:27:35;4.75;;;2.15;;
59263;SDS011;45030;42.720;23.344;2023-05-23T13:30:00;3.60;;;1.50;;
59263;SDS011;45030;42.720;23.344;2023-05-23T13:32:25;2.73;;;1.87;;
59263;SDS011;45030;42.720;23.344;2023-05-23T13:34:51;2.47;;;1.40;;
59263;SDS011;45030;42.720;23.344;2023-05-23T13:37:16;2.60;;;1.70;;
59263;SDS011;45030;42.720;23.344;2023-05-23T13:39:41;2.90;;;1.60;;
59263;SDS011;45030;42.720;23.344;2023-05-23T13:42:07;2.70;;;1.70;;
59263;SDS011;45030;42.720;23.344;2023-05-23T13:44:32;2.80;;;1.83;;
59263;SDS011;45030;42.720;23.344;2023-05-23T13:47:03;2.22;;;1.55;;
59263;SDS011;45030;42.720;23.344;2023-05-23T13:49:33;3.05;;;1.70;;
59263;SDS011;45030;42.720;23.344;2023-05-23T13:51:58;2.77;;;1.60;;
59263;SDS011;45030;42.720;23.344;2023-05-23T13:54:23;2.67;;;1.80;;
59263;SDS011;45030;42.720;23.344;2023-05-23T13:56:49;3.58;;;1.63;;
59263;SDS011;45030;42.720;23.344;2023-05-23T13:59:14;4.97;;;2.50;;
59263;SDS011;45030;42.720;23.344;2023-05-23T14:01:44;4.60;;;1.83;;
59263;SDS011;45030;42.720;23.344;2023-05-23T14:04:10;3.85;;;2.35;;
59263;SDS011;45030;42.720;23.344;2023-05-23T14:06:35;3.33;;;2.13;;
59263;SDS011;45030;42.720;23.344;2023-05-23T14:09:01;3.22;;;1.98;;
59263;SDS011;45030;42.720;23.344;2023-05-23T14:11:26;4.15;;;1.83;;
59263;SDS011;45030;42.720;23.344;2023-05-23T14:13:52;4.35;;;1.83;;
59263;SDS011;45030;42.720;23.344;2023-05-23T14:16:17;3.33;;;1.75;;
59263;SDS011;45030;42.720;23.344;2023-05-23T14:18:42;3.47;;;2.20;;
59263;SDS011;45030;42.720;23.344;2023-05-23T14:21:09;2.55;;;2.00;;
59263;SDS011;45030;42.720;23.344;2023-05-23T14:23:34;3.60;;;1.65;;
59263;SDS011;45030;42.720;23.344;2023-05-23T14:25:59;2.85;;;2.00;;
59263;SDS011;45030;42.720;23.344;2023-05-23T14:28:25;3.70;;;1.90;;
59263;SDS011;45030;42.720;23.344;2023-05-23T14:30:50;2.70;;;1.90;;
59263;SDS011;45030;42.720;23.344;2023-05-23T14:33:15;5.10;;;2.13;;
59263;SDS011;45030;42.720;23.344;2023-05-23T14:35:40;3.00;;;1.70;;